createdAt,value
2023-02-10T00:00:25.602Z,54.70
2023-02-10T00:01:25.581Z,50.80
2023-02-10T00:02:25.672Z,53.40
2023-02-10T00:03:25.595Z,48.90
2023-02-10T00:04:25.536Z,49.80
2023-02-10T00:05:25.525Z,47.10
2023-02-10T00:06:25.531Z,48.60
2023-02-10T00:07:25.526Z,49.20
2023-02-10T00:08:25.533Z,50.20
2023-02-10T00:09:25.497Z,48.70
2023-02-10T00:10:25.471Z,49.90
2023-02-10T00:11:25.493Z,47.70
2023-02-10T00:12:25.469Z,51.10
2023-02-10T00:13:25.478Z,49.50
2023-02-10T00:14:25.435Z,51.50
2023-02-10T00:15:25.428Z,52.30
2023-02-10T00:16:25.455Z,49.90
2023-02-10T00:17:25.414Z,51.70
2023-02-10T00:18:25.443Z,52.80
2023-02-10T00:19:25.406Z,52.20
2023-02-10T00:20:25.380Z,51.20
2023-02-10T00:21:25.378Z,51.50
2023-02-10T00:22:25.374Z,50.50
2023-02-10T00:23:25.398Z,56.40
2023-02-10T00:24:25.358Z,56.80
2023-02-10T00:25:25.337Z,53.60
2023-02-10T00:26:25.319Z,55.40
2023-02-10T00:27:25.320Z,54.60
2023-02-10T00:28:25.414Z,53.70
2023-02-10T00:29:25.292Z,58.30
2023-02-10T00:30:25.311Z,52.50
2023-02-10T00:31:25.378Z,54.20
2023-02-10T00:32:25.266Z,54.80
2023-02-10T00:33:25.287Z,54.00
2023-02-10T00:34:25.249Z,59.60
2023-02-10T00:35:25.261Z,54.90
2023-02-10T00:36:25.230Z,56.90
2023-02-10T00:37:25.211Z,60.70
2023-02-10T00:38:25.214Z,56.20
2023-02-10T00:39:25.209Z,54.10
2023-02-10T00:40:25.198Z,54.90
2023-02-10T00:41:25.317Z,54.50
2023-02-10T00:42:25.180Z,56.30
2023-02-10T00:43:25.183Z,57.70
2023-02-10T00:44:25.144Z,56.10
2023-02-10T00:45:25.140Z,56.20
2023-02-10T00:46:25.159Z,58.00
2023-02-10T00:47:25.121Z,60.10
2023-02-10T00:48:25.121Z,58.90
2023-02-10T00:49:25.109Z,55.90
2023-02-10T00:50:25.100Z,55.40
2023-02-10T00:51:25.081Z,56.80
2023-02-10T00:52:25.063Z,59.60
2023-02-10T00:53:25.064Z,58.80
2023-02-10T00:54:25.068Z,56.70
2023-02-10T00:55:25.054Z,59.70
2023-02-10T00:56:25.024Z,58.90
2023-02-10T00:57:25.016Z,59.20
2023-02-10T00:58:25.028Z,57.20
2023-02-10T00:59:25.003Z,57.20
2023-02-10T01:00:25.038Z,56.60
2023-02-10T01:01:24.998Z,54.70
2023-02-10T01:02:24.959Z,56.40
2023-02-10T01:03:25.002Z,57.00
2023-02-10T01:04:24.937Z,58.70
2023-02-10T01:05:24.953Z,56.10
2023-02-10T01:06:24.921Z,57.50
2023-02-10T01:07:24.911Z,56.00
2023-02-10T01:08:24.951Z,57.60
2023-02-10T01:09:24.906Z,59.40
2023-02-10T01:10:24.880Z,55.80
2023-02-10T01:11:24.880Z,60.50
2023-02-10T01:12:24.852Z,59.00
2023-02-10T01:13:24.853Z,61.20
2023-02-10T01:14:24.852Z,56.50
2023-02-10T01:15:24.825Z,57.40
2023-02-10T01:16:24.873Z,55.70
2023-02-10T01:17:24.835Z,59.50
2023-02-10T01:18:24.810Z,54.10
2023-02-10T01:19:24.802Z,56.90
2023-02-10T01:20:24.784Z,58.40
2023-02-10T01:21:24.774Z,58.40
2023-02-10T01:22:24.766Z,59.90
2023-02-10T01:23:24.766Z,59.90
2023-02-10T01:24:24.734Z,57.50
2023-02-10T01:25:24.732Z,61.80
2023-02-10T01:26:24.728Z,59.90
2023-02-10T01:27:24.719Z,60.20
2023-02-10T01:28:24.747Z,57.00
2023-02-10T01:29:24.700Z,62.70
2023-02-10T01:30:24.683Z,56.30
2023-02-10T01:31:24.700Z,62.40
2023-02-10T01:32:24.656Z,57.40
2023-02-10T01:33:24.664Z,58.10
2023-02-10T01:34:24.631Z,56.50
2023-02-10T01:35:24.716Z,57.40
2023-02-10T01:36:24.621Z,58.10
2023-02-10T01:37:24.616Z,60.80
2023-02-10T01:38:24.652Z,59.10
2023-02-10T01:39:24.609Z,58.00
2023-02-10T01:40:24.577Z,57.10
2023-02-10T01:41:24.582Z,58.80
2023-02-10T01:42:24.580Z,55.70
2023-02-10T01:43:24.570Z,57.90
2023-02-10T01:44:24.547Z,61.80
2023-02-10T01:45:24.594Z,56.80
2023-02-10T01:46:24.518Z,57.70
2023-02-10T01:47:24.506Z,57.40
2023-02-10T01:48:24.561Z,57.40
2023-02-10T01:49:24.494Z,58.80
2023-02-10T01:50:24.476Z,58.80
2023-02-10T01:51:24.477Z,56.70
2023-02-10T01:52:24.461Z,60.30
2023-02-10T01:53:24.467Z,61.00
2023-02-10T01:54:24.440Z,57.70
2023-02-10T01:55:24.458Z,56.30
2023-02-10T01:56:24.417Z,58.40
2023-02-10T01:57:24.419Z,57.40
2023-02-10T01:58:24.438Z,56.00
2023-02-10T01:59:24.432Z,59.80
2023-02-10T02:00:24.421Z,57.70
2023-02-10T02:01:24.424Z,59.30
2023-02-10T02:02:24.493Z,56.70
2023-02-10T02:03:24.358Z,57.30
2023-02-10T02:04:24.369Z,55.40
2023-02-10T02:05:24.353Z,56.00
2023-02-10T02:06:24.365Z,55.60
2023-02-10T02:07:24.352Z,57.20
2023-02-10T02:08:24.315Z,57.40
2023-02-10T02:09:24.303Z,55.50
2023-02-10T02:10:24.284Z,58.20
2023-02-10T02:11:24.335Z,55.50
2023-02-10T02:12:24.284Z,55.20
2023-02-10T02:13:24.261Z,60.70
2023-02-10T02:14:24.275Z,58.80
2023-02-10T02:15:24.237Z,52.10
2023-02-10T02:16:24.256Z,55.20
2023-02-10T02:17:24.232Z,58.60
2023-02-10T02:18:24.202Z,58.60
2023-02-10T02:19:24.254Z,55.30
2023-02-10T02:20:24.183Z,54.90
2023-02-10T02:21:24.173Z,58.50
2023-02-10T02:22:24.185Z,56.70
2023-02-10T02:23:24.157Z,56.10
2023-02-10T02:24:24.215Z,54.90
2023-02-10T02:25:24.135Z,57.10
2023-02-10T02:26:24.121Z,57.30
2023-02-10T02:27:24.117Z,57.40
2023-02-10T02:28:24.207Z,59.30
2023-02-10T02:29:24.144Z,56.00
2023-02-10T02:30:24.114Z,57.60
2023-02-10T02:31:24.080Z,62.00
2023-02-10T02:32:24.071Z,60.00
2023-02-10T02:33:24.061Z,60.20
2023-02-10T02:34:24.067Z,62.90
2023-02-10T02:35:24.042Z,61.90
2023-02-10T02:36:24.029Z,57.00
2023-02-10T02:37:24.019Z,64.60
2023-02-10T02:38:24.007Z,60.10
2023-02-10T02:39:24.024Z,62.20
2023-02-10T02:40:24.001Z,63.30
2023-02-10T02:41:23.981Z,59.50
2023-02-10T02:42:24.002Z,66.70
2023-02-10T02:43:23.973Z,71.90
2023-02-10T02:44:23.959Z,70.60
2023-02-10T02:45:23.938Z,76.40
2023-02-10T02:46:23.965Z,81.60
2023-02-10T02:47:23.932Z,94.60
2023-02-10T02:48:23.925Z,81.50
2023-02-10T02:49:23.959Z,79.00
2023-02-10T02:50:23.908Z,83.10
2023-02-10T02:51:23.892Z,78.00
2023-02-10T02:52:23.871Z,92.00
2023-02-10T02:53:23.868Z,102.80
2023-02-10T02:54:23.904Z,98.20
2023-02-10T02:55:23.848Z,102.10
2023-02-10T02:56:23.844Z,122.90
2023-02-10T02:57:23.840Z,111.90
2023-02-10T02:58:23.830Z,108.00
2023-02-10T02:59:23.814Z,112.40
2023-02-10T03:00:23.801Z,107.30
2023-02-10T03:01:23.965Z,108.20
2023-02-10T03:02:23.776Z,114.50
2023-02-10T03:03:23.762Z,122.70
2023-02-10T03:04:23.823Z,121.10
2023-02-10T03:05:23.751Z,104.00
2023-02-10T03:06:23.764Z,105.30
2023-02-10T03:07:23.725Z,122.80
2023-02-10T03:08:23.729Z,117.40
2023-02-10T03:09:23.740Z,126.80
2023-02-10T03:10:23.695Z,135.50
2023-02-10T03:11:23.693Z,119.40
2023-02-10T03:12:23.675Z,116.80
2023-02-10T03:13:23.676Z,128.90
2023-02-10T03:14:23.709Z,116.20
2023-02-10T03:15:23.704Z,126.30
2023-02-10T03:16:23.646Z,128.30
2023-02-10T03:17:23.642Z,135.20
2023-02-10T03:18:23.629Z,133.30
2023-02-10T03:19:23.667Z,132.00
2023-02-10T03:20:23.595Z,139.70
2023-02-10T03:21:23.595Z,122.50
2023-02-10T03:22:23.574Z,143.20
2023-02-10T03:23:23.579Z,121.80
2023-02-10T03:24:23.605Z,128.10
2023-02-10T03:25:23.548Z,132.20
2023-02-10T03:26:23.537Z,117.50
2023-02-10T03:27:23.530Z,130.00
2023-02-10T03:28:23.639Z,114.10
2023-02-10T03:29:23.531Z,126.60
2023-02-10T03:30:23.504Z,119.70
2023-02-10T03:31:23.594Z,127.20
2023-02-10T03:32:23.488Z,133.90
2023-02-10T03:33:23.473Z,134.60
2023-02-10T03:34:23.505Z,122.40
2023-02-10T03:35:23.444Z,125.40
2023-02-10T03:36:23.439Z,100.10
2023-02-10T03:37:23.454Z,102.50
2023-02-10T03:38:23.421Z,119.00
2023-02-10T03:39:23.418Z,115.50
2023-02-10T03:40:23.416Z,122.80
2023-02-10T03:41:23.389Z,126.30
2023-02-10T03:42:23.383Z,140.20
2023-02-10T03:43:23.371Z,117.50
2023-02-10T03:44:23.417Z,122.00
2023-02-10T03:45:23.354Z,133.50
2023-02-10T03:46:23.443Z,139.60
2023-02-10T03:47:23.343Z,130.30
2023-02-10T03:48:23.341Z,117.70
2023-02-10T03:49:23.328Z,143.80
2023-02-10T03:50:23.309Z,143.70
2023-02-10T03:51:23.290Z,151.60
2023-02-10T03:52:23.289Z,139.10
2023-02-10T03:53:23.272Z,165.80
2023-02-10T03:54:23.325Z,121.10
2023-02-10T03:55:23.259Z,122.50
2023-02-10T03:56:23.252Z,114.30
2023-02-10T03:57:23.231Z,125.00
2023-02-10T03:58:23.226Z,128.10
2023-02-10T03:59:23.240Z,130.70
2023-02-10T04:00:23.208Z,122.40
2023-02-10T04:01:23.207Z,126.30
2023-02-10T04:02:23.245Z,138.80
2023-02-10T04:03:23.264Z,135.40
2023-02-10T04:04:23.179Z,127.50
2023-02-10T04:05:23.162Z,152.60
2023-02-10T04:06:23.160Z,131.70
2023-02-10T04:07:23.141Z,142.80
2023-02-10T04:08:23.159Z,167.90
2023-02-10T04:09:23.141Z,146.60
2023-02-10T04:10:23.112Z,155.00
2023-02-10T04:11:23.138Z,144.40
2023-02-10T04:12:23.109Z,156.40
2023-02-10T04:13:23.080Z,144.10
2023-02-10T04:14:23.121Z,149.50
2023-02-10T04:15:23.072Z,160.80
2023-02-10T04:16:23.169Z,177.40
2023-02-10T04:17:23.054Z,185.40
2023-02-10T04:18:23.034Z,146.60
2023-02-10T04:19:23.063Z,161.70
2023-02-10T04:20:23.018Z,172.40
2023-02-10T04:21:23.007Z,145.80
2023-02-10T04:22:22.997Z,147.80
2023-02-10T04:23:22.990Z,154.40
2023-02-10T04:24:23.008Z,177.90
2023-02-10T04:25:22.977Z,175.00
2023-02-10T04:26:22.962Z,158.10
2023-02-10T04:27:22.964Z,150.30
2023-02-10T04:28:22.986Z,180.60
2023-02-10T04:29:22.944Z,210.90
2023-02-10T04:30:22.927Z,177.50
2023-02-10T04:31:22.956Z,161.50
2023-02-10T04:32:22.907Z,134.40
2023-02-10T04:33:22.911Z,121.00
2023-02-10T04:34:22.922Z,125.60
2023-02-10T04:35:22.878Z,129.60
2023-02-10T04:36:22.868Z,120.60
2023-02-10T04:37:22.858Z,115.80
2023-02-10T04:38:22.853Z,135.50
2023-02-10T04:39:22.854Z,130.40
2023-02-10T04:40:22.828Z,132.70
2023-02-10T04:41:22.818Z,135.40
2023-02-10T04:42:22.812Z,144.30
2023-02-10T04:43:24.730Z,135.90
2023-02-10T04:44:22.807Z,116.80
2023-02-10T04:45:22.785Z,121.00
2023-02-10T04:46:22.842Z,104.10
2023-02-10T04:47:22.772Z,123.60
2023-02-10T04:48:22.751Z,113.50
2023-02-10T04:49:22.769Z,113.80
2023-02-10T04:50:28.845Z,123.90
2023-02-10T04:51:22.742Z,116.50
2023-02-10T04:52:22.753Z,114.20
2023-02-10T04:53:22.719Z,118.40
2023-02-10T04:54:22.745Z,127.50
2023-02-10T04:55:22.708Z,130.60
2023-02-10T04:56:22.708Z,108.20
2023-02-10T04:57:22.700Z,111.80
2023-02-10T04:58:22.677Z,119.70
2023-02-10T04:59:22.687Z,125.00
2023-02-10T05:00:22.655Z,118.70
2023-02-10T05:01:22.641Z,135.10
2023-02-10T05:02:22.675Z,127.70
2023-02-10T05:03:22.631Z,126.70
2023-02-10T05:04:22.645Z,135.40
2023-02-10T05:05:22.602Z,122.00
2023-02-10T05:06:22.595Z,124.30
2023-02-10T05:07:22.592Z,131.30
2023-02-10T05:08:22.572Z,122.00
2023-02-10T05:09:22.586Z,126.20
2023-02-10T05:10:22.585Z,130.20
2023-02-10T05:11:22.536Z,133.10
2023-02-10T05:12:22.555Z,141.10
2023-02-10T05:13:22.534Z,136.80
2023-02-10T05:14:22.541Z,167.10
2023-02-10T05:15:22.498Z,184.90
2023-02-10T05:16:22.518Z,171.60
2023-02-10T05:17:22.540Z,171.50
2023-02-10T05:18:22.473Z,180.60
2023-02-10T05:19:22.491Z,170.70
2023-02-10T05:20:22.458Z,175.40
2023-02-10T05:21:22.438Z,197.80
2023-02-10T05:22:22.444Z,182.80
2023-02-10T05:23:22.419Z,200.50
2023-02-10T05:24:22.481Z,204.40
2023-02-10T05:25:22.572Z,192.50
2023-02-10T05:26:22.455Z,205.40
2023-02-10T05:27:22.452Z,229.00
2023-02-10T05:28:22.383Z,234.30
2023-02-10T05:29:22.451Z,217.70
2023-02-10T05:30:22.382Z,209.90
2023-02-10T05:31:22.470Z,204.00
2023-02-10T05:32:22.352Z,182.60
2023-02-10T05:33:22.333Z,188.80
2023-02-10T05:34:22.324Z,197.80
2023-02-10T05:35:22.341Z,186.10
2023-02-10T05:36:22.301Z,188.70
2023-02-10T05:37:22.303Z,221.90
2023-02-10T05:38:22.294Z,200.20
2023-02-10T05:39:22.261Z,224.30
2023-02-10T05:40:22.294Z,240.90
2023-02-10T05:41:22.243Z,219.30
2023-02-10T05:42:22.256Z,229.90
2023-02-10T05:43:22.225Z,233.10
2023-02-10T05:44:22.225Z,226.60
2023-02-10T05:45:22.239Z,201.30
2023-02-10T05:46:22.209Z,187.60
2023-02-10T05:47:22.203Z,187.40
2023-02-10T05:48:22.194Z,173.70
2023-02-10T05:49:22.201Z,163.50
2023-02-10T05:50:22.185Z,161.30
2023-02-10T05:51:22.156Z,158.60
2023-02-10T05:52:22.163Z,148.30
2023-02-10T05:53:22.129Z,147.50
2023-02-10T05:54:22.147Z,142.90
2023-02-10T05:55:22.138Z,148.20
2023-02-10T05:56:22.105Z,142.80
2023-02-10T05:57:22.102Z,136.50
2023-02-10T05:58:22.080Z,127.10
2023-02-10T05:59:22.069Z,125.90
2023-02-10T06:00:22.092Z,130.40
2023-02-10T06:01:22.047Z,131.70
2023-02-10T06:02:22.096Z,119.70
2023-02-10T06:03:22.059Z,122.70
2023-02-10T06:04:22.037Z,124.50
2023-02-10T06:05:22.026Z,128.90
2023-02-10T06:06:22.004Z,126.20
2023-02-10T06:07:22.003Z,127.00
2023-02-10T06:08:21.988Z,117.90
2023-02-10T06:09:21.968Z,123.40
2023-02-10T06:10:21.995Z,131.20
2023-02-10T06:11:21.951Z,119.90
2023-02-10T06:12:21.960Z,127.50
2023-02-10T06:13:21.953Z,126.60
2023-02-10T06:14:21.927Z,124.30
2023-02-10T06:15:22.299Z,122.60
2023-02-10T06:16:21.910Z,121.40
2023-02-10T06:17:21.848Z,114.20
2023-02-10T06:18:21.833Z,118.50
2023-02-10T06:19:21.824Z,114.50
2023-02-10T06:20:21.844Z,123.90
2023-02-10T06:21:21.800Z,119.50
2023-02-10T06:22:21.808Z,124.60
2023-02-10T06:23:21.793Z,117.20
2023-02-10T06:24:21.776Z,120.00
2023-02-10T06:25:21.798Z,117.80
2023-02-10T06:26:21.766Z,119.10
2023-02-10T06:27:21.752Z,110.40
2023-02-10T06:28:21.808Z,114.90
2023-02-10T06:29:21.712Z,113.20
2023-02-10T06:30:21.751Z,117.00
2023-02-10T06:31:21.890Z,104.50
2023-02-10T06:32:21.710Z,117.70
2023-02-10T06:33:21.686Z,111.90
2023-02-10T06:34:21.678Z,114.80
2023-02-10T06:35:21.731Z,115.20
2023-02-10T06:36:21.652Z,112.50
2023-02-10T06:37:21.906Z,110.10
2023-02-10T06:38:21.630Z,108.90
2023-02-10T06:39:21.622Z,107.70
2023-02-10T06:40:21.654Z,110.10
2023-02-10T06:41:21.601Z,106.90
2023-02-10T06:42:21.601Z,95.00
2023-02-10T06:43:21.613Z,110.60
2023-02-10T06:44:21.566Z,104.10
2023-02-10T06:45:21.588Z,104.50
2023-02-10T06:46:21.623Z,105.00
2023-02-10T06:47:21.552Z,106.20
2023-02-10T06:48:21.540Z,104.80
2023-02-10T06:49:21.515Z,105.00
2023-02-10T06:50:21.539Z,102.60
2023-02-10T06:51:21.510Z,107.10
2023-02-10T06:52:21.506Z,108.80
2023-02-10T06:53:21.476Z,108.50
2023-02-10T06:54:21.471Z,100.50
2023-02-10T06:55:21.597Z,105.90
2023-02-10T06:56:21.452Z,111.30
2023-02-10T06:57:21.445Z,105.60
2023-02-10T06:58:21.428Z,105.40
2023-02-10T06:59:21.432Z,104.90
2023-02-10T07:00:21.628Z,103.80
2023-02-10T07:01:21.447Z,102.10
2023-02-10T07:02:21.432Z,93.40
2023-02-10T07:03:21.393Z,105.20
2023-02-10T07:04:21.369Z,101.30
2023-02-10T07:05:21.395Z,104.80
2023-02-10T07:06:21.371Z,109.70
2023-02-10T07:07:21.370Z,113.80
2023-02-10T07:08:21.351Z,103.30
2023-02-10T07:09:21.346Z,104.20
2023-02-10T07:10:21.356Z,100.20
2023-02-10T07:11:21.311Z,109.20
2023-02-10T07:12:21.331Z,107.90
2023-02-10T07:13:21.315Z,100.40
2023-02-10T07:14:21.314Z,106.50
2023-02-10T07:15:21.328Z,115.50
2023-02-10T07:16:21.447Z,105.10
2023-02-10T07:17:21.278Z,108.00
2023-02-10T07:18:21.239Z,108.90
2023-02-10T07:19:21.233Z,111.20
2023-02-10T07:20:21.254Z,114.10
2023-02-10T07:21:21.215Z,105.60
2023-02-10T07:22:21.221Z,109.80
2023-02-10T07:23:35.294Z,110.50
2023-02-10T07:24:21.190Z,115.70
2023-02-10T07:25:21.177Z,109.80
2023-02-10T07:26:21.232Z,113.10
2023-02-10T07:27:21.174Z,114.70
2023-02-10T07:28:21.204Z,115.60
2023-02-10T07:29:21.136Z,116.40
2023-02-10T07:30:21.145Z,116.30
2023-02-10T07:31:21.207Z,111.30
2023-02-10T07:32:21.115Z,113.90
2023-02-10T07:33:21.116Z,109.60
2023-02-10T07:34:21.092Z,116.00
2023-02-10T07:35:23.444Z,110.40
2023-02-10T07:36:21.065Z,119.50
2023-02-10T07:37:21.063Z,114.00
2023-02-10T07:38:21.060Z,114.90
2023-02-10T07:39:21.048Z,116.40
2023-02-10T07:40:21.050Z,120.70
2023-02-10T07:41:21.045Z,121.80
2023-02-10T07:42:21.005Z,116.90
2023-02-10T07:43:20.992Z,120.80
2023-02-10T07:44:20.986Z,116.50
2023-02-10T07:45:21.003Z,121.80
2023-02-10T07:46:21.004Z,121.80
2023-02-10T07:47:20.965Z,119.50
2023-02-10T07:48:20.946Z,117.40
2023-02-10T07:49:20.981Z,108.40
2023-02-10T07:50:20.951Z,117.70
2023-02-10T07:51:20.907Z,120.60
2023-02-10T07:52:20.952Z,117.00
2023-02-10T07:53:20.897Z,116.00
2023-02-10T07:54:20.912Z,117.70
2023-02-10T07:55:20.900Z,111.10
2023-02-10T07:56:20.855Z,113.50
2023-02-10T07:57:20.861Z,111.90
2023-02-10T07:58:20.839Z,116.90
2023-02-10T07:59:20.834Z,109.60
2023-02-10T08:00:20.835Z,111.40
2023-02-10T08:01:20.811Z,115.80
2023-02-10T08:02:20.877Z,111.50
2023-02-10T08:03:20.797Z,106.50
2023-02-10T08:04:20.781Z,114.90
2023-02-10T08:05:20.882Z,113.90
2023-02-10T08:06:20.759Z,122.60
2023-02-10T08:07:20.770Z,117.90
2023-02-10T08:08:20.746Z,117.60
2023-02-10T08:09:20.746Z,117.60
2023-02-10T08:10:20.752Z,113.80
2023-02-10T08:11:20.749Z,118.20
2023-02-10T08:12:20.710Z,115.10
2023-02-10T08:13:20.690Z,120.40
2023-02-10T08:14:20.675Z,114.20
2023-02-10T08:15:20.706Z,112.00
2023-02-10T08:16:20.733Z,111.20
2023-02-10T08:17:20.675Z,112.50
2023-02-10T08:18:20.631Z,109.70
2023-02-10T08:19:20.666Z,105.50
2023-02-10T08:20:20.613Z,104.00
2023-02-10T08:21:20.644Z,105.90
2023-02-10T08:22:20.651Z,107.10
2023-02-10T08:23:20.600Z,100.80
2023-02-10T08:24:20.574Z,99.20
2023-02-10T08:25:20.577Z,105.10
2023-02-10T08:26:20.587Z,102.10
2023-02-10T08:27:20.566Z,103.50
2023-02-10T08:28:20.570Z,97.10
2023-02-10T08:29:20.529Z,98.40
2023-02-10T08:30:20.534Z,100.50
2023-02-10T08:31:20.609Z,97.80
2023-02-10T08:32:20.507Z,100.70
2023-02-10T08:33:20.500Z,95.60
2023-02-10T08:34:20.520Z,100.80
2023-02-10T08:35:20.467Z,98.80
2023-02-10T08:36:20.479Z,100.50
2023-02-10T08:37:20.463Z,100.10
2023-02-10T08:38:20.439Z,97.60
2023-02-10T08:39:20.428Z,93.90
2023-02-10T08:40:20.416Z,102.80
2023-02-10T08:41:20.436Z,99.20
2023-02-10T08:42:20.405Z,94.70
2023-02-10T08:43:20.389Z,91.40
2023-02-10T08:44:20.379Z,95.50
2023-02-10T08:45:20.370Z,93.80
2023-02-10T08:46:20.457Z,96.70
2023-02-10T08:47:20.355Z,91.60
2023-02-10T08:48:20.334Z,92.20
2023-02-10T08:49:20.328Z,90.10
2023-02-10T08:50:20.319Z,94.10
2023-02-10T08:51:20.388Z,93.80
2023-02-10T08:52:20.304Z,88.10
2023-02-10T08:53:20.289Z,92.70
2023-02-10T08:54:20.274Z,92.60
2023-02-10T08:55:20.269Z,94.80
2023-02-10T08:56:20.356Z,91.10
2023-02-10T08:57:20.274Z,93.00
2023-02-10T08:58:20.285Z,90.20
2023-02-10T08:59:20.289Z,85.20
2023-02-10T09:00:20.227Z,97.00
2023-02-10T09:01:20.350Z,91.20
2023-02-10T09:02:20.206Z,92.30
2023-02-10T09:03:20.193Z,89.70
2023-02-10T09:04:20.169Z,90.70
2023-02-10T09:05:20.201Z,90.00
2023-02-10T09:06:20.182Z,86.40
2023-02-10T09:07:20.166Z,88.60
2023-02-10T09:08:20.133Z,81.80
2023-02-10T09:09:20.126Z,82.40
2023-02-10T09:10:20.122Z,83.30
2023-02-10T09:11:20.147Z,81.20
2023-02-10T09:12:20.117Z,82.00
2023-02-10T09:13:20.129Z,81.20
2023-02-10T09:14:20.084Z,81.10
2023-02-10T09:15:20.085Z,83.40
2023-02-10T09:16:20.142Z,80.20
2023-02-10T09:17:20.062Z,80.30
2023-02-10T09:18:20.046Z,82.30
2023-02-10T09:19:20.035Z,78.70
2023-02-10T09:20:20.015Z,75.20
2023-02-10T09:21:20.018Z,76.10
2023-02-10T09:22:20.003Z,72.80
2023-02-10T09:23:19.984Z,76.20
2023-02-10T09:24:19.979Z,77.40
2023-02-10T09:25:19.995Z,78.50
2023-02-10T09:26:19.972Z,76.70
2023-02-10T09:27:19.974Z,76.00
2023-02-10T09:28:19.985Z,75.60
2023-02-10T09:29:19.926Z,76.10
2023-02-10T09:30:19.912Z,75.30
2023-02-10T09:31:20.027Z,75.60
2023-02-10T09:32:19.918Z,76.30
2023-02-10T09:33:19.888Z,71.80
2023-02-10T09:34:19.882Z,75.80
2023-02-10T09:35:19.874Z,74.00
2023-02-10T09:36:19.904Z,76.10
2023-02-10T09:37:19.875Z,78.20
2023-02-10T09:38:19.825Z,70.30
2023-02-10T09:39:19.819Z,70.80
2023-02-10T09:40:19.813Z,73.50
2023-02-10T09:41:19.821Z,74.90
2023-02-10T09:42:19.799Z,71.50
2023-02-10T09:43:19.783Z,73.00
2023-02-10T09:44:19.822Z,71.80
2023-02-10T09:45:19.771Z,70.70
2023-02-10T09:46:19.801Z,69.30
2023-02-10T09:47:19.752Z,72.10
2023-02-10T09:48:19.728Z,74.30
2023-02-10T09:49:19.744Z,71.10
2023-02-10T09:50:19.720Z,74.90
2023-02-10T09:51:19.724Z,69.20
2023-02-10T09:52:19.693Z,68.80
2023-02-10T09:53:19.680Z,69.50
2023-02-10T09:54:19.674Z,71.80
2023-02-10T09:55:19.658Z,72.40
2023-02-10T09:56:19.668Z,70.60
2023-02-10T09:57:19.651Z,67.60
2023-02-10T09:58:19.664Z,67.60
2023-02-10T09:59:19.634Z,69.80
2023-02-10T10:00:19.620Z,69.00
2023-02-10T10:01:19.665Z,69.10
2023-02-10T10:02:19.630Z,67.00
2023-02-10T10:03:19.580Z,68.10
2023-02-10T10:04:19.569Z,69.10
2023-02-10T10:05:19.563Z,67.00
2023-02-10T10:06:19.676Z,67.10
2023-02-10T10:07:19.557Z,65.90
2023-02-10T10:08:19.531Z,65.70
2023-02-10T10:09:19.571Z,66.10
2023-02-10T10:10:19.512Z,61.20
2023-02-10T10:11:19.535Z,65.80
2023-02-10T10:12:19.505Z,65.90
2023-02-10T10:13:19.514Z,63.20
2023-02-10T10:14:19.475Z,66.30
2023-02-10T10:15:19.467Z,61.90
2023-02-10T10:16:19.506Z,61.50
2023-02-10T10:17:19.457Z,61.90
2023-02-10T10:18:19.436Z,63.20
2023-02-10T10:19:19.422Z,65.20
2023-02-10T10:20:19.412Z,61.60
2023-02-10T10:21:19.432Z,62.80
2023-02-10T10:22:19.402Z,61.30
2023-02-10T10:23:19.383Z,59.50
2023-02-10T10:24:19.389Z,58.10
2023-02-10T10:25:19.362Z,65.70
2023-02-10T10:26:34.035Z,60.10
2023-02-10T10:27:19.385Z,60.70
2023-02-10T10:28:19.430Z,59.80
2023-02-10T10:29:19.321Z,62.40
2023-02-10T10:30:19.399Z,60.90
2023-02-10T10:31:19.379Z,60.30
2023-02-10T10:32:19.312Z,58.80
2023-02-10T10:33:19.285Z,59.20
2023-02-10T10:34:19.272Z,54.80
2023-02-10T10:35:19.270Z,58.10
2023-02-10T10:36:19.278Z,56.90
2023-02-10T10:37:19.256Z,57.90
2023-02-10T10:38:19.228Z,51.90
2023-02-10T10:39:19.320Z,55.10
2023-02-10T10:40:19.206Z,53.10
2023-02-10T10:41:19.229Z,55.60
2023-02-10T10:42:19.194Z,55.60
2023-02-10T10:43:19.182Z,54.80
2023-02-10T10:44:19.181Z,53.50
2023-02-10T10:45:19.164Z,53.40
2023-02-10T10:46:19.245Z,51.80
2023-02-10T10:47:19.257Z,55.60
2023-02-10T10:48:19.125Z,56.60
2023-02-10T10:49:19.120Z,53.70
2023-02-10T10:51:15.873Z,50.00
2023-02-10T10:52:17.467Z,54.20
2023-02-10T10:53:16.834Z,52.40
2023-02-10T10:54:16.834Z,56.00
2023-02-10T10:55:16.828Z,57.40
2023-02-10T10:56:16.834Z,52.10
2023-02-10T10:57:16.890Z,53.60
2023-02-10T10:58:16.792Z,50.70
2023-02-10T10:59:16.768Z,50.20
2023-02-10T11:00:16.796Z,50.50
2023-02-10T11:01:16.836Z,53.80
2023-02-10T11:02:16.784Z,51.90
2023-02-10T11:03:16.736Z,52.00
2023-02-10T11:04:16.732Z,47.10
2023-02-10T11:05:16.706Z,52.20
2023-02-10T11:06:16.704Z,52.60
2023-02-10T11:07:16.735Z,49.70
2023-02-10T11:08:16.696Z,48.90
2023-02-10T11:09:16.671Z,49.80
2023-02-10T11:10:16.658Z,51.60
2023-02-10T11:11:30.811Z,50.00
2023-02-10T11:12:16.656Z,52.90
2023-02-10T11:13:16.652Z,52.20
2023-02-10T11:14:16.630Z,53.00
2023-02-10T11:15:16.615Z,54.60
2023-02-10T11:16:16.764Z,49.30
2023-02-10T11:17:16.640Z,49.30
2023-02-10T11:18:16.580Z,51.30
2023-02-10T11:19:16.559Z,50.00
2023-02-10T11:20:16.557Z,49.70
2023-02-10T11:21:16.550Z,47.90
2023-02-10T11:22:16.557Z,49.60
2023-02-10T11:23:16.530Z,48.80
2023-02-10T11:24:16.533Z,48.60
2023-02-10T11:25:16.498Z,49.60
2023-02-10T11:26:16.492Z,46.50
2023-02-10T11:27:16.544Z,46.90
2023-02-10T11:28:16.519Z,50.00
2023-02-10T11:29:16.454Z,46.60
2023-02-10T11:30:16.452Z,45.60
2023-02-10T11:31:16.620Z,43.70
2023-02-10T11:32:16.497Z,42.80
2023-02-10T11:33:16.409Z,46.90
2023-02-10T11:34:16.401Z,43.70
2023-02-10T11:35:16.392Z,42.90
2023-02-10T11:36:16.385Z,43.20
2023-02-10T11:37:16.412Z,48.00
2023-02-10T11:38:16.358Z,41.40
2023-02-10T11:39:16.343Z,40.80
2023-02-10T11:40:16.338Z,41.20
2023-02-10T11:41:16.344Z,40.80
2023-02-10T11:42:16.331Z,41.30
2023-02-10T11:43:16.299Z,43.60
2023-02-10T11:44:16.295Z,42.40
2023-02-10T11:45:16.286Z,40.00
2023-02-10T11:46:16.314Z,40.40
2023-02-10T11:47:16.286Z,40.30
2023-02-10T11:48:16.258Z,38.10
2023-02-10T11:49:16.239Z,38.70
2023-02-10T11:50:16.230Z,36.80
2023-02-10T11:51:16.226Z,39.50
2023-02-10T11:52:16.232Z,40.60
2023-02-10T11:53:16.225Z,39.10
2023-02-10T11:54:16.197Z,40.80
2023-02-10T11:55:16.172Z,40.60
2023-02-10T11:56:16.165Z,39.20
2023-02-10T11:57:16.159Z,36.00
2023-02-10T11:58:16.163Z,37.40
2023-02-10T11:59:16.141Z,35.30
2023-02-10T12:00:16.161Z,34.90
2023-02-10T12:01:16.110Z,34.40
2023-02-10T12:02:16.128Z,35.20
2023-02-10T12:03:16.110Z,35.10
2023-02-10T12:04:16.105Z,34.30
2023-02-10T12:05:16.148Z,36.80
2023-02-10T12:06:16.810Z,34.20
2023-02-10T12:07:16.125Z,36.60
2023-02-10T12:08:16.039Z,36.00
2023-02-10T12:09:16.021Z,35.60
2023-02-10T12:10:16.024Z,36.80
2023-02-10T12:11:16.000Z,39.20
2023-02-10T12:12:16.147Z,34.20
2023-02-10T12:13:15.976Z,34.60
2023-02-10T12:14:15.987Z,36.50
2023-02-10T12:15:15.957Z,36.10
2023-02-10T12:16:16.024Z,37.30
2023-02-10T12:17:15.961Z,35.30
2023-02-10T12:18:15.956Z,36.00
2023-02-10T12:19:15.913Z,36.60
2023-02-10T12:20:15.923Z,34.80
2023-02-10T12:21:15.935Z,35.40
2023-02-10T12:22:15.909Z,36.00
2023-02-10T12:23:15.872Z,37.60
2023-02-10T12:24:15.863Z,36.00
2023-02-10T12:25:15.852Z,35.30
2023-02-10T12:26:15.858Z,38.20
2023-02-10T12:27:15.841Z,35.80
2023-02-10T12:28:15.865Z,37.90
2023-02-10T12:29:19.748Z,36.40
2023-02-10T12:30:15.842Z,34.40
2023-02-10T12:31:17.215Z,32.50
2023-02-10T12:32:15.914Z,34.70
2023-02-10T12:33:15.767Z,36.50
2023-02-10T12:34:15.776Z,35.80
2023-02-10T12:35:15.784Z,34.60
2023-02-10T12:36:15.733Z,35.40
2023-02-10T12:37:15.765Z,35.60
2023-02-10T12:38:15.722Z,34.60
2023-02-10T12:39:15.722Z,38.70
2023-02-10T12:40:15.851Z,35.00
2023-02-10T12:41:15.679Z,36.20
2023-02-10T12:42:15.692Z,34.30